sensor_id;sensor_type;location;lat;lon;timestamp;temperature;humidity
71514;DHT22;59335;46.652;21.272;2023-04-25T00:01:22;22.27;44.24
71514;DHT22;59335;46.652;21.272;2023-04-25T00:04:25;22.30;44.20
71514;DHT22;59335;46.652;21.272;2023-04-25T00:07:30;22.30;44.11
71514;DHT22;59335;46.652;21.272;2023-04-25T00:10:33;22.30;44.17
71514;DHT22;59335;46.652;21.272;2023-04-25T00:13:36;22.27;44.21
71514;DHT22;59335;46.652;21.272;2023-04-25T00:16:38;22.30;44.16
71514;DHT22;59335;46.652;21.272;2023-04-25T00:19:43;22.30;44.10
71514;DHT22;59335;46.652;21.272;2023-04-25T00:22:49;22.29;44.15
71514;DHT22;59335;46.652;21.272;2023-04-25T00:25:51;22.29;44.07
71514;DHT22;59335;46.652;21.272;2023-04-25T00:28:54;22.27;44.09
71514;DHT22;59335;46.652;21.272;2023-04-25T00:31:58;22.29;44.13
71514;DHT22;59335;46.652;21.272;2023-04-25T00:35:01;22.29;44.07
71514;DHT22;59335;46.652;21.272;2023-04-25T00:38:04;22.26;44.13
71514;DHT22;59335;46.652;21.272;2023-04-25T00:41:07;22.29;44.11
71514;DHT22;59335;46.652;21.272;2023-04-25T00:44:11;22.29;44.09
71514;DHT22;59335;46.652;21.272;2023-04-25T00:47:15;22.29;44.11
71514;DHT22;59335;46.652;21.272;2023-04-25T00:50:18;22.24;44.11
71514;DHT22;59335;46.652;21.272;2023-04-25T00:53:21;22.27;44.04
71514;DHT22;59335;46.652;21.272;2023-04-25T00:56:25;22.26;44.08
71514;DHT22;59335;46.652;21.272;2023-04-25T00:59:28;22.26;44.08
71514;DHT22;59335;46.652;21.272;2023-04-25T01:02:33;22.24;44.08
71514;DHT22;59335;46.652;21.272;2023-04-25T01:05:36;22.27;44.02
71514;DHT22;59335;46.652;21.272;2023-04-25T01:08:39;22.26;44.03
71514;DHT22;59335;46.652;21.272;2023-04-25T01:11:42;22.29;43.95
71514;DHT22;59335;46.652;21.272;2023-04-25T01:14:45;22.27;43.95
71514;DHT22;59335;46.652;21.272;2023-04-25T01:17:48;22.26;44.00
71514;DHT22;59335;46.652;21.272;2023-04-25T01:20:52;22.24;43.98
71514;DHT22;59335;46.652;21.272;2023-04-25T01:23:57;22.30;43.98
71514;DHT22;59335;46.652;21.272;2023-04-25T01:27:00;22.30;43.97
71514;DHT22;59335;46.652;21.272;2023-04-25T01:30:05;22.26;43.98
71514;DHT22;59335;46.652;21.272;2023-04-25T01:33:08;22.26;43.99
71514;DHT22;59335;46.652;21.272;2023-04-25T01:36:12;22.24;43.99
71514;DHT22;59335;46.652;21.272;2023-04-25T01:39:16;22.27;43.87
71514;DHT22;59335;46.652;21.272;2023-04-25T01:42:19;22.24;43.92
71514;DHT22;59335;46.652;21.272;2023-04-25T01:45:22;22.23;43.93
71514;DHT22;59335;46.652;21.272;2023-04-25T01:48:26;22.24;43.95
71514;DHT22;59335;46.652;21.272;2023-04-25T01:51:29;22.27;43.86
71514;DHT22;59335;46.652;21.272;2023-04-25T01:54:33;22.26;43.85
71514;DHT22;59335;46.652;21.272;2023-04-25T01:57:36;22.21;43.91
71514;DHT22;59335;46.652;21.272;2023-04-25T02:00:39;22.23;43.92
71514;DHT22;59335;46.652;21.272;2023-04-25T02:03:43;22.24;43.90
71514;DHT22;59335;46.652;21.272;2023-04-25T02:06:55;22.24;43.85
71514;DHT22;59335;46.652;21.272;2023-04-25T02:10:04;22.21;43.87
71514;DHT22;59335;46.652;21.272;2023-04-25T02:13:11;22.29;43.77
71514;DHT22;59335;46.652;21.272;2023-04-25T02:16:40;22.23;43.83
71514;DHT22;59335;46.652;21.272;2023-04-25T02:19:43;22.19;43.87
71514;DHT22;59335;46.652;21.272;2023-04-25T02:22:47;22.21;43.81
71514;DHT22;59335;46.652;21.272;2023-04-25T02:25:50;22.21;43.79
71514;DHT22;59335;46.652;21.272;2023-04-25T02:28:54;22.21;43.83
71514;DHT22;59335;46.652;21.272;2023-04-25T02:31:57;22.21;43.82
71514;DHT22;59335;46.652;21.272;2023-04-25T02:35:01;22.23;43.80
71514;DHT22;59335;46.652;21.272;2023-04-25T02:38:06;22.23;43.79
71514;DHT22;59335;46.652;21.272;2023-04-25T02:41:09;22.21;43.82
71514;DHT22;59335;46.652;21.272;2023-04-25T02:44:12;22.23;43.78
71514;DHT22;59335;46.652;21.272;2023-04-25T02:47:14;22.24;43.78
71514;DHT22;59335;46.652;21.272;2023-04-25T02:50:18;22.21;43.75
71514;DHT22;59335;46.652;21.272;2023-04-25T02:53:21;22.23;43.73
71514;DHT22;59335;46.652;21.272;2023-04-25T02:56:26;22.20;43.82
71514;DHT22;59335;46.652;21.272;2023-04-25T02:59:29;22.21;43.71
71514;DHT22;59335;46.652;21.272;2023-04-25T03:02:32;22.16;43.77
71514;DHT22;59335;46.652;21.272;2023-04-25T03:05:35;22.20;43.74
71514;DHT22;59335;46.652;21.272;2023-04-25T03:08:38;22.21;43.71
71514;DHT22;59335;46.652;21.272;2023-04-25T03:11:40;22.20;43.75
71514;DHT22;59335;46.652;21.272;2023-04-25T03:14:43;22.20;43.74
71514;DHT22;59335;46.652;21.272;2023-04-25T03:17:46;22.19;43.74
71514;DHT22;59335;46.652;21.272;2023-04-25T03:20:49;22.17;43.75
71514;DHT22;59335;46.652;21.272;2023-04-25T03:23:52;22.19;43.75
71514;DHT22;59335;46.652;21.272;2023-04-25T03:26:55;22.19;43.71
71514;DHT22;59335;46.652;21.272;2023-04-25T03:29:58;22.16;43.73
71514;DHT22;59335;46.652;21.272;2023-04-25T03:33:00;22.19;43.75
71514;DHT22;59335;46.652;21.272;2023-04-25T03:36:03;22.19;43.74
71514;DHT22;59335;46.652;21.272;2023-04-25T03:39:06;22.19;43.64
71514;DHT22;59335;46.652;21.272;2023-04-25T03:42:09;22.19;43.69
71514;DHT22;59335;46.652;21.272;2023-04-25T03:45:12;22.16;43.71
71514;DHT22;59335;46.652;21.272;2023-04-25T03:48:15;22.17;43.73
71514;DHT22;59335;46.652;21.272;2023-04-25T03:51:18;22.21;43.69
71514;DHT22;59335;46.652;21.272;2023-04-25T03:54:22;22.21;43.73
71514;DHT22;59335;46.652;21.272;2023-04-25T03:57:37;22.20;43.67
71514;DHT22;59335;46.652;21.272;2023-04-25T04:00:40;22.23;43.65
71514;DHT22;59335;46.652;21.272;2023-04-25T04:03:43;22.20;43.74
71514;DHT22;59335;46.652;21.272;2023-04-25T04:06:46;22.20;43.67
71514;DHT22;59335;46.652;21.272;2023-04-25T04:09:54;22.19;43.70
71514;DHT22;59335;46.652;21.272;2023-04-25T04:13:05;22.19;43.73
71514;DHT22;59335;46.652;21.272;2023-04-25T04:16:08;22.19;43.64
71514;DHT22;59335;46.652;21.272;2023-04-25T04:19:11;22.20;43.71
71514;DHT22;59335;46.652;21.272;2023-04-25T04:22:18;22.19;43.75
71514;DHT22;59335;46.652;21.272;2023-04-25T04:25:22;22.19;43.74
71514;DHT22;59335;46.652;21.272;2023-04-25T04:28:45;22.17;43.74
71514;DHT22;59335;46.652;21.272;2023-04-25T04:32:00;22.16;43.74
71514;DHT22;59335;46.652;21.272;2023-04-25T04:35:05;22.17;43.71
71514;DHT22;59335;46.652;21.272;2023-04-25T04:38:09;22.16;43.76
71514;DHT22;59335;46.652;21.272;2023-04-25T04:41:13;22.16;43.72
71514;DHT22;59335;46.652;21.272;2023-04-25T04:44:31;22.16;43.73
71514;DHT22;59335;46.652;21.272;2023-04-25T04:47:48;22.14;43.83
71514;DHT22;59335;46.652;21.272;2023-04-25T04:51:11;22.17;43.79
71514;DHT22;59335;46.652;21.272;2023-04-25T04:54:46;22.20;43.79
71514;DHT22;59335;46.652;21.272;2023-04-25T04:58:09;22.17;43.74
71514;DHT22;59335;46.652;21.272;2023-04-25T05:01:27;22.16;43.75
71514;DHT22;59335;46.652;21.272;2023-04-25T05:04:55;22.17;43.75
71514;DHT22;59335;46.652;21.272;2023-04-25T05:08:09;22.16;43.80
71514;DHT22;59335;46.652;21.272;2023-04-25T05:11:37;22.14;43.75
71514;DHT22;59335;46.652;21.272;2023-04-25T05:14:56;22.17;43.71
71514;DHT22;59335;46.652;21.272;2023-04-25T05:18:30;22.21;43.79
71514;DHT22;59335;46.652;21.272;2023-04-25T05:22:00;22.24;43.58
71514;DHT22;59335;46.652;21.272;2023-04-25T05:25:12;22.24;43.75
71514;DHT22;59335;46.652;21.272;2023-04-25T05:28:36;22.27;43.95
71514;DHT22;59335;46.652;21.272;2023-04-25T05:32:09;22.36;43.78
71514;DHT22;59335;46.652;21.272;2023-04-25T05:35:11;22.39;43.85
71514;DHT22;59335;46.652;21.272;2023-04-25T05:38:20;22.37;43.85
71514;DHT22;59335;46.652;21.272;2023-04-25T05:41:52;22.44;43.94
71514;DHT22;59335;46.652;21.272;2023-04-25T05:45:14;22.46;44.43
71514;DHT22;59335;46.652;21.272;2023-04-25T05:48:33;22.46;44.85
71514;DHT22;59335;46.652;21.272;2023-04-25T05:52:07;22.44;44.58
71514;DHT22;59335;46.652;21.272;2023-04-25T05:55:10;22.41;44.61
71514;DHT22;59335;46.652;21.272;2023-04-25T05:58:14;22.47;44.87
71514;DHT22;59335;46.652;21.272;2023-04-25T06:01:17;22.44;44.60
71514;DHT22;59335;46.652;21.272;2023-04-25T06:04:23;22.47;45.35
71514;DHT22;59335;46.652;21.272;2023-04-25T06:07:30;22.48;44.84
71514;DHT22;59335;46.652;21.272;2023-04-25T06:10:39;22.47;44.82
71514;DHT22;59335;46.652;21.272;2023-04-25T06:13:45;22.43;44.88
71514;DHT22;59335;46.652;21.272;2023-04-25T06:16:51;22.44;44.93
71514;DHT22;59335;46.652;21.272;2023-04-25T06:19:54;22.40;44.99
71514;DHT22;59335;46.652;21.272;2023-04-25T06:22:57;22.43;44.90
71514;DHT22;59335;46.652;21.272;2023-04-25T06:26:08;22.41;44.85
71514;DHT22;59335;46.652;21.272;2023-04-25T06:29:14;22.41;44.95
71514;DHT22;59335;46.652;21.272;2023-04-25T06:32:17;22.40;45.33
71514;DHT22;59335;46.652;21.272;2023-04-25T06:35:22;22.37;45.30
71514;DHT22;59335;46.652;21.272;2023-04-25T06:38:33;22.34;45.43
71514;DHT22;59335;46.652;21.272;2023-04-25T06:41:40;22.37;46.03
71514;DHT22;59335;46.652;21.272;2023-04-25T06:44:50;22.39;45.70
71514;DHT22;59335;46.652;21.272;2023-04-25T06:47:57;22.48;45.66
71514;DHT22;59335;46.652;21.272;2023-04-25T06:51:07;22.50;45.46
71514;DHT22;59335;46.652;21.272;2023-04-25T06:54:12;22.51;45.70
71514;DHT22;59335;46.652;21.272;2023-04-25T06:57:24;22.54;45.59
71514;DHT22;59335;46.652;21.272;2023-04-25T07:00:29;22.60;46.16
71514;DHT22;59335;46.652;21.272;2023-04-25T07:03:35;22.65;46.01
71514;DHT22;59335;46.652;21.272;2023-04-25T07:06:45;22.67;45.62
71514;DHT22;59335;46.652;21.272;2023-04-25T07:09:53;22.64;45.93
71514;DHT22;59335;46.652;21.272;2023-04-25T07:12:57;22.58;46.06
71514;DHT22;59335;46.652;21.272;2023-04-25T07:16:02;22.63;45.94
71514;DHT22;59335;46.652;21.272;2023-04-25T07:19:08;22.60;46.08
71514;DHT22;59335;46.652;21.272;2023-04-25T07:22:12;22.58;46.10
71514;DHT22;59335;46.652;21.272;2023-04-25T07:25:17;22.61;46.09
71514;DHT22;59335;46.652;21.272;2023-04-25T07:28:23;22.57;46.21
71514;DHT22;59335;46.652;21.272;2023-04-25T07:31:27;22.61;46.08
71514;DHT22;59335;46.652;21.272;2023-04-25T07:34:31;22.57;46.27
71514;DHT22;59335;46.652;21.272;2023-04-25T07:37:35;22.58;46.33
71514;DHT22;59335;46.652;21.272;2023-04-25T07:40:53;22.63;46.31
71514;DHT22;59335;46.652;21.272;2023-04-25T07:43:56;22.64;46.18
71514;DHT22;59335;46.652;21.272;2023-04-25T07:47:00;22.61;46.25
71514;DHT22;59335;46.652;21.272;2023-04-25T07:50:06;22.64;46.86
71514;DHT22;59335;46.652;21.272;2023-04-25T07:53:09;22.64;46.77
71514;DHT22;59335;46.652;21.272;2023-04-25T07:56:20;22.64;46.97
71514;DHT22;59335;46.652;21.272;2023-04-25T07:59:25;22.64;46.96
71514;DHT22;59335;46.652;21.272;2023-04-25T08:02:31;22.68;46.93
71514;DHT22;59335;46.652;21.272;2023-04-25T08:05:36;22.69;46.70
71514;DHT22;59335;46.652;21.272;2023-04-25T08:08:43;22.67;46.97
71514;DHT22;59335;46.652;21.272;2023-04-25T08:11:50;22.69;47.25
71514;DHT22;59335;46.652;21.272;2023-04-25T08:15:04;22.65;47.54
71514;DHT22;59335;46.652;21.272;2023-04-25T08:18:10;22.68;47.41
71514;DHT22;59335;46.652;21.272;2023-04-25T08:21:14;22.72;47.29
71514;DHT22;59335;46.652;21.272;2023-04-25T08:24:18;22.69;47.45
71514;DHT22;59335;46.652;21.272;2023-04-25T08:27:22;22.72;47.58
71514;DHT22;59335;46.652;21.272;2023-04-25T08:30:26;22.72;47.59
71514;DHT22;59335;46.652;21.272;2023-04-25T08:33:32;22.71;47.64
71514;DHT22;59335;46.652;21.272;2023-04-25T08:36:51;22.71;47.72
71514;DHT22;59335;46.652;21.272;2023-04-25T08:40:05;22.71;48.18
71514;DHT22;59335;46.652;21.272;2023-04-25T08:43:48;22.74;48.43
71514;DHT22;59335;46.652;21.272;2023-04-25T08:46:55;22.71;48.40
71514;DHT22;59335;46.652;21.272;2023-04-25T08:50:17;22.76;48.78
71514;DHT22;59335;46.652;21.272;2023-04-25T08:53:31;22.75;48.89
71514;DHT22;59335;46.652;21.272;2023-04-25T08:56:47;22.74;49.09
71514;DHT22;59335;46.652;21.272;2023-04-25T08:59:51;22.75;49.29
71514;DHT22;59335;46.652;21.272;2023-04-25T09:02:58;22.82;49.00
71514;DHT22;59335;46.652;21.272;2023-04-25T09:06:05;22.90;49.18
71514;DHT22;59335;46.652;21.272;2023-04-25T09:09:10;22.90;49.34
71514;DHT22;59335;46.652;21.272;2023-04-25T09:12:18;22.92;49.15
71514;DHT22;59335;46.652;21.272;2023-04-25T09:15:56;22.91;50.78
71514;DHT22;59335;46.652;21.272;2023-04-25T09:19:22;22.96;49.29
71514;DHT22;59335;46.652;21.272;2023-04-25T09:22:47;22.95;49.54
71514;DHT22;59335;46.652;21.272;2023-04-25T09:25:52;22.92;49.23
71514;DHT22;59335;46.652;21.272;2023-04-25T09:29:05;22.84;49.50
71514;DHT22;59335;46.652;21.272;2023-04-25T09:32:24;22.84;49.50
71514;DHT22;59335;46.652;21.272;2023-04-25T09:35:35;22.84;49.98
71514;DHT22;59335;46.652;21.272;2023-04-25T09:38:44;22.78;49.88
71514;DHT22;59335;46.652;21.272;2023-04-25T09:41:59;22.81;49.71
71514;DHT22;59335;46.652;21.272;2023-04-25T09:45:03;22.81;49.64
71514;DHT22;59335;46.652;21.272;2023-04-25T09:48:20;22.81;49.64
71514;DHT22;59335;46.652;21.272;2023-04-25T09:51:29;22.92;49.80
71514;DHT22;59335;46.652;21.272;2023-04-25T09:54:36;22.88;50.10
71514;DHT22;59335;46.652;21.272;2023-04-25T09:57:53;22.88;50.47
71514;DHT22;59335;46.652;21.272;2023-04-25T10:01:01;22.85;50.38
71514;DHT22;59335;46.652;21.272;2023-04-25T10:04:19;22.88;50.36
71514;DHT22;59335;46.652;21.272;2023-04-25T10:07:41;22.88;50.45
71514;DHT22;59335;46.652;21.272;2023-04-25T10:10:49;22.87;50.62
71514;DHT22;59335;46.652;21.272;2023-04-25T10:13:54;22.82;50.64
71514;DHT22;59335;46.652;21.272;2023-04-25T10:17:05;22.82;50.58
71514;DHT22;59335;46.652;21.272;2023-04-25T10:20:08;22.82;50.49
71514;DHT22;59335;46.652;21.272;2023-04-25T10:23:14;22.81;50.52
71514;DHT22;59335;46.652;21.272;2023-04-25T10:26:19;22.76;50.67
71514;DHT22;59335;46.652;21.272;2023-04-25T10:29:24;22.79;50.40
71514;DHT22;59335;46.652;21.272;2023-04-25T10:32:27;22.81;50.03
71514;DHT22;59335;46.652;21.272;2023-04-25T10:35:33;22.81;50.15
71514;DHT22;59335;46.652;21.272;2023-04-25T10:38:37;22.81;50.40
71514;DHT22;59335;46.652;21.272;2023-04-25T10:41:51;22.75;50.45
71514;DHT22;59335;46.652;21.272;2023-04-25T10:45:07;22.78;50.08
71514;DHT22;59335;46.652;21.272;2023-04-25T10:48:29;22.84;50.03
71514;DHT22;59335;46.652;21.272;2023-04-25T10:51:34;22.82;50.52
71514;DHT22;59335;46.652;21.272;2023-04-25T10:54:57;22.85;50.14
71514;DHT22;59335;46.652;21.272;2023-04-25T10:58:00;22.87;49.90
71514;DHT22;59335;46.652;21.272;2023-04-25T11:01:03;22.87;49.90
71514;DHT22;59335;46.652;21.272;2023-04-25T11:04:29;22.88;50.30
71514;DHT22;59335;46.652;21.272;2023-04-25T11:07:49;22.90;50.10
71514;DHT22;59335;46.652;21.272;2023-04-25T11:11:08;22.91;50.39
71514;DHT22;59335;46.652;21.272;2023-04-25T11:14:11;22.88;50.30
71514;DHT22;59335;46.652;21.272;2023-04-25T11:17:14;22.90;50.18
71514;DHT22;59335;46.652;21.272;2023-04-25T11:20:17;22.90;50.54
71514;DHT22;59335;46.652;21.272;2023-04-25T11:23:21;22.85;50.62
71514;DHT22;59335;46.652;21.272;2023-04-25T11:26:24;22.79;50.74
71514;DHT22;59335;46.652;21.272;2023-04-25T11:29:28;22.82;50.75
71514;DHT22;59335;46.652;21.272;2023-04-25T11:32:33;22.84;50.80
71514;DHT22;59335;46.652;21.272;2023-04-25T11:35:41;22.88;50.60
71514;DHT22;59335;46.652;21.272;2023-04-25T11:38:43;22.88;50.39
71514;DHT22;59335;46.652;21.272;2023-04-25T11:41:47;22.90;50.32
71514;DHT22;59335;46.652;21.272;2023-04-25T11:44:51;22.91;50.58
71514;DHT22;59335;46.652;21.272;2023-04-25T11:47:54;22.94;50.95
71514;DHT22;59335;46.652;21.272;2023-04-25T11:51:00;22.94;50.61
71514;DHT22;59335;46.652;21.272;2023-04-25T11:54:04;22.96;50.50
71514;DHT22;59335;46.652;21.272;2023-04-25T11:57:11;23.03;50.92
71514;DHT22;59335;46.652;21.272;2023-04-25T12:00:21;23.09;50.84
71514;DHT22;59335;46.652;21.272;2023-04-25T12:03:26;23.13;51.11
71514;DHT22;59335;46.652;21.272;2023-04-25T12:06:37;23.20;51.19
71514;DHT22;59335;46.652;21.272;2023-04-25T12:09:42;23.26;51.24
71514;DHT22;59335;46.652;21.272;2023-04-25T12:12:46;23.32;51.16
71514;DHT22;59335;46.652;21.272;2023-04-25T12:15:50;23.34;51.33
71514;DHT22;59335;46.652;21.272;2023-04-25T12:18:53;23.40;51.34
71514;DHT22;59335;46.652;21.272;2023-04-25T12:21:56;23.46;51.36
71514;DHT22;59335;46.652;21.272;2023-04-25T12:25:00;23.49;51.48
71514;DHT22;59335;46.652;21.272;2023-04-25T12:28:23;23.49;51.69
71514;DHT22;59335;46.652;21.272;2023-04-25T12:31:26;23.54;51.85
71514;DHT22;59335;46.652;21.272;2023-04-25T12:34:32;23.56;52.26
71514;DHT22;59335;46.652;21.272;2023-04-25T12:37:35;23.56;52.22
71514;DHT22;59335;46.652;21.272;2023-04-25T12:40:38;23.54;52.38
71514;DHT22;59335;46.652;21.272;2023-04-25T12:43:41;23.56;52.50
71514;DHT22;59335;46.652;21.272;2023-04-25T12:46:44;23.60;52.79
71514;DHT22;59335;46.652;21.272;2023-04-25T12:49:49;23.57;52.87
71514;DHT22;59335;46.652;21.272;2023-04-25T12:52:53;23.60;52.71
71514;DHT22;59335;46.652;21.272;2023-04-25T12:55:56;23.63;52.73
71514;DHT22;59335;46.652;21.272;2023-04-25T12:58:59;23.61;52.80
71514;DHT22;59335;46.652;21.272;2023-04-25T13:02:03;23.63;52.70
71514;DHT22;59335;46.652;21.272;2023-04-25T13:05:06;23.64;52.72
71514;DHT22;59335;46.652;21.272;2023-04-25T13:08:10;23.61;52.70
71514;DHT22;59335;46.652;21.272;2023-04-25T13:11:13;23.59;52.67
71514;DHT22;59335;46.652;21.272;2023-04-25T13:14:17;23.59;52.67
71514;DHT22;59335;46.652;21.272;2023-04-25T13:17:19;23.56;52.49
71514;DHT22;59335;46.652;21.272;2023-04-25T13:20:22;23.53;52.41
71514;DHT22;59335;46.652;21.272;2023-04-25T13:23:26;23.47;52.39
71514;DHT22;59335;46.652;21.272;2023-04-25T13:26:29;23.46;52.10
71514;DHT22;59335;46.652;21.272;2023-04-25T13:29:32;23.39;51.80
71514;DHT22;59335;46.652;21.272;2023-04-25T13:32:38;23.38;51.73
71514;DHT22;59335;46.652;21.272;2023-04-25T13:35:42;23.36;51.68
71514;DHT22;59335;46.652;21.272;2023-04-25T13:38:47;23.33;51.59
71514;DHT22;59335;46.652;21.272;2023-04-25T13:41:51;23.20;51.99
71514;DHT22;59335;46.652;21.272;2023-04-25T13:44:54;23.26;51.79
71514;DHT22;59335;46.652;21.272;2023-04-25T13:47:57;23.24;51.63
71514;DHT22;59335;46.652;21.272;2023-04-25T13:51:00;23.26;51.29
71514;DHT22;59335;46.652;21.272;2023-04-25T13:54:03;23.20;51.71
71514;DHT22;59335;46.652;21.272;2023-04-25T13:57:16;23.23;51.35
71514;DHT22;59335;46.652;21.272;2023-04-25T14:00:19;23.22;51.30
71514;DHT22;59335;46.652;21.272;2023-04-25T14:03:22;23.22;51.01
71514;DHT22;59335;46.652;21.272;2023-04-25T14:06:25;23.16;50.94
71514;DHT22;59335;46.652;21.272;2023-04-25T14:09:28;23.13;51.09
71514;DHT22;59335;46.652;21.272;2023-04-25T14:12:31;23.13;50.97
71514;DHT22;59335;46.652;21.272;2023-04-25T14:15:34;23.13;50.83
71514;DHT22;59335;46.652;21.272;2023-04-25T14:18:37;23.13;50.78
71514;DHT22;59335;46.652;21.272;2023-04-25T14:21:40;23.08;51.06
71514;DHT22;59335;46.652;21.272;2023-04-25T14:24:44;23.08;50.88
71514;DHT22;59335;46.652;21.272;2023-04-25T14:27:47;23.08;50.78
71514;DHT22;59335;46.652;21.272;2023-04-25T14:30:51;23.06;50.67
71514;DHT22;59335;46.652;21.272;2023-04-25T14:33:54;23.03;50.70
71514;DHT22;59335;46.652;21.272;2023-04-25T14:37:00;23.05;50.64
71514;DHT22;59335;46.652;21.272;2023-04-25T14:40:03;23.02;50.65
71514;DHT22;59335;46.652;21.272;2023-04-25T14:43:07;23.02;50.59
71514;DHT22;59335;46.652;21.272;2023-04-25T14:46:10;23.01;50.58
71514;DHT22;59335;46.652;21.272;2023-04-25T14:49:13;22.96;50.62
71514;DHT22;59335;46.652;21.272;2023-04-25T14:52:16;22.99;50.53
71514;DHT22;59335;46.652;21.272;2023-04-25T14:55:19;22.94;50.40
71514;DHT22;59335;46.652;21.272;2023-04-25T14:58:22;22.94;50.21
71514;DHT22;59335;46.652;21.272;2023-04-25T15:01:25;22.95;50.30
71514;DHT22;59335;46.652;21.272;2023-04-25T15:04:28;22.94;50.26
71514;DHT22;59335;46.652;21.272;2023-04-25T15:07:31;22.90;50.06
71514;DHT22;59335;46.652;21.272;2023-04-25T15:10:34;22.91;49.97
71514;DHT22;59335;46.652;21.272;2023-04-25T15:13:37;22.90;49.93
71514;DHT22;59335;46.652;21.272;2023-04-25T15:16:40;22.88;50.01
71514;DHT22;59335;46.652;21.272;2023-04-25T15:19:43;22.87;49.93
71514;DHT22;59335;46.652;21.272;2023-04-25T15:22:45;22.81;50.05
71514;DHT22;59335;46.652;21.272;2023-04-25T15:25:51;22.82;49.44
71514;DHT22;59335;46.652;21.272;2023-04-25T15:28:54;22.74;51.55
71514;DHT22;59335;46.652;21.272;2023-04-25T15:31:57;22.72;48.61
71514;DHT22;59335;46.652;21.272;2023-04-25T15:35:03;22.75;49.20
71514;DHT22;59335;46.652;21.272;2023-04-25T15:38:06;22.65;59.64
71514;DHT22;59335;46.652;21.272;2023-04-25T15:41:10;22.60;61.90
71514;DHT22;59335;46.652;21.272;2023-04-25T15:44:12;22.54;62.73
71514;DHT22;59335;46.652;21.272;2023-04-25T15:47:15;22.53;62.95
71514;DHT22;59335;46.652;21.272;2023-04-25T15:50:18;22.51;62.95
71514;DHT22;59335;46.652;21.272;2023-04-25T15:53:21;22.48;62.67
71514;DHT22;59335;46.652;21.272;2023-04-25T15:56:24;22.47;61.27
71514;DHT22;59335;46.652;21.272;2023-04-25T15:59:26;22.48;61.03
71514;DHT22;59335;46.652;21.272;2023-04-25T16:02:29;22.53;61.56
71514;DHT22;59335;46.652;21.272;2023-04-25T16:05:32;22.51;61.57
71514;DHT22;59335;46.652;21.272;2023-04-25T16:08:35;22.48;61.78
71514;DHT22;59335;46.652;21.272;2023-04-25T16:11:37;22.50;60.58
71514;DHT22;59335;46.652;21.272;2023-04-25T16:14:40;22.54;59.84
71514;DHT22;59335;46.652;21.272;2023-04-25T16:17:43;22.53;59.40
71514;DHT22;59335;46.652;21.272;2023-04-25T16:20:46;22.51;58.58
71514;DHT22;59335;46.652;21.272;2023-04-25T16:23:49;22.53;58.04
71514;DHT22;59335;46.652;21.272;2023-04-25T16:26:52;22.53;58.01
71514;DHT22;59335;46.652;21.272;2023-04-25T16:29:54;22.55;57.56
71514;DHT22;59335;46.652;21.272;2023-04-25T16:32:57;22.53;57.11
71514;DHT22;59335;46.652;21.272;2023-04-25T16:36:00;22.53;56.77
71514;DHT22;59335;46.652;21.272;2023-04-25T16:39:03;22.55;56.00
71514;DHT22;59335;46.652;21.272;2023-04-25T16:42:05;22.58;55.43
71514;DHT22;59335;46.652;21.272;2023-04-25T16:45:09;22.58;55.08
71514;DHT22;59335;46.652;21.272;2023-04-25T16:48:12;22.58;54.63
71514;DHT22;59335;46.652;21.272;2023-04-25T16:51:15;22.58;54.38
71514;DHT22;59335;46.652;21.272;2023-04-25T16:54:18;22.57;54.10
71514;DHT22;59335;46.652;21.272;2023-04-25T16:57:21;22.57;53.94
71514;DHT22;59335;46.652;21.272;2023-04-25T17:00:23;22.57;53.81
71514;DHT22;59335;46.652;21.272;2023-04-25T17:03:27;22.58;53.64
71514;DHT22;59335;46.652;21.272;2023-04-25T17:06:30;22.60;53.48
71514;DHT22;59335;46.652;21.272;2023-04-25T17:09:34;22.57;53.47
71514;DHT22;59335;46.652;21.272;2023-04-25T17:12:38;22.57;53.12
71514;DHT22;59335;46.652;21.272;2023-04-25T17:15:41;22.55;53.09
71514;DHT22;59335;46.652;21.272;2023-04-25T17:18:44;22.60;52.94
71514;DHT22;59335;46.652;21.272;2023-04-25T17:21:47;22.57;52.89
71514;DHT22;59335;46.652;21.272;2023-04-25T17:24:50;22.57;52.80
71514;DHT22;59335;46.652;21.272;2023-04-25T17:27:53;22.55;52.72
71514;DHT22;59335;46.652;21.272;2023-04-25T17:30:56;22.54;52.63
71514;DHT22;59335;46.652;21.272;2023-04-25T17:33:59;22.51;52.54
71514;DHT22;59335;46.652;21.272;2023-04-25T17:37:02;22.50;52.42
71514;DHT22;59335;46.652;21.272;2023-04-25T17:40:07;22.50;52.39
71514;DHT22;59335;46.652;21.272;2023-04-25T17:43:13;22.54;52.29
71514;DHT22;59335;46.652;21.272;2023-04-25T17:46:16;22.51;52.22
71514;DHT22;59335;46.652;21.272;2023-04-25T17:49:19;22.51;52.14
71514;DHT22;59335;46.652;21.272;2023-04-25T17:52:23;22.50;52.13
71514;DHT22;59335;46.652;21.272;2023-04-25T17:55:26;22.51;51.91
71514;DHT22;59335;46.652;21.272;2023-04-25T17:58:29;22.51;51.90
71514;DHT22;59335;46.652;21.272;2023-04-25T18:01:32;22.47;51.86
71514;DHT22;59335;46.652;21.272;2023-04-25T18:04:36;22.48;51.81
71514;DHT22;59335;46.652;21.272;2023-04-25T18:07:39;22.48;51.71
71514;DHT22;59335;46.652;21.272;2023-04-25T18:10:43;22.50;51.70
71514;DHT22;59335;46.652;21.272;2023-04-25T18:13:46;22.48;51.61
71514;DHT22;59335;46.652;21.272;2023-04-25T18:16:50;22.47;51.59
71514;DHT22;59335;46.652;21.272;2023-04-25T18:19:55;22.47;51.51
71514;DHT22;59335;46.652;21.272;2023-04-25T18:22:58;22.44;51.44
71514;DHT22;59335;46.652;21.272;2023-04-25T18:26:02;22.46;51.28
71514;DHT22;59335;46.652;21.272;2023-04-25T18:29:11;22.46;51.23
71514;DHT22;59335;46.652;21.272;2023-04-25T18:32:34;22.47;51.15
71514;DHT22;59335;46.652;21.272;2023-04-25T18:35:37;22.44;51.05
71514;DHT22;59335;46.652;21.272;2023-04-25T18:38:56;22.41;51.02
71514;DHT22;59335;46.652;21.272;2023-04-25T18:42:20;22.46;50.90
71514;DHT22;59335;46.652;21.272;2023-04-25T18:45:25;22.44;50.84
71514;DHT22;59335;46.652;21.272;2023-04-25T18:48:29;22.43;50.83
71514;DHT22;59335;46.652;21.272;2023-04-25T18:51:33;22.43;50.77
71514;DHT22;59335;46.652;21.272;2023-04-25T18:54:37;22.41;50.72
71514;DHT22;59335;46.652;21.272;2023-04-25T18:57:41;22.41;50.52
71514;DHT22;59335;46.652;21.272;2023-04-25T19:00:45;22.41;50.56
71514;DHT22;59335;46.652;21.272;2023-04-25T19:03:50;22.40;50.53
71514;DHT22;59335;46.652;21.272;2023-04-25T19:06:58;22.41;50.43
71514;DHT22;59335;46.652;21.272;2023-04-25T19:10:03;22.40;50.41
71514;DHT22;59335;46.652;21.272;2023-04-25T19:13:08;22.40;50.30
71514;DHT22;59335;46.652;21.272;2023-04-25T19:16:11;22.37;50.27
71514;DHT22;59335;46.652;21.272;2023-04-25T19:19:15;22.40;50.28